Latest Weather Observations for Longreach

IDQ60801

Issued at 7:35 pm EST Friday 19 September 2014 (issued every 30 minutes, with the page automatically refreshed every 10 minutes)

About weather observations | Map of weather stations | Latest weather observations for QLD | Other Formats
Station Details ID: 036031 Name: LONGREACH AERO Lat: -23.44 Lon: 144.28 Height: 192.2 m
Data from the previous 72 hours. | See also: Recent months at Longreach
Date/Time
EST
Temp
°C
App
Temp
°C
Dew
Point
Rel
Hum
%
Delta-T
°C
Wind Press
QNH
hPa
Press
MSL
hPa
Rain
since 9 am
mm
Dir
 
Spd
km/h
Gust
km/h
Spd
kts
Gust
kts
19/07:30pm 24.5 19.0 -5.5 13 12.5 S 15 19 8 10 1017.3 - 0.0
19/07:00pm 25.6 19.0 -6.7 11 13.3 S 20 26 11 14 1016.8 - 0.0
19/06:30pm 26.8 20.2 -7.0 10 14.0 S 20 28 11 15 1016.3 - 0.0
19/06:00pm 28.0 21.3 -8.6 8 14.9 S 20 28 11 15 1015.7 1015.0 0.0
19/05:30pm 28.8 21.3 -8.3 8 15.3 SSW 24 37 13 20 1015.5 - 0.0
19/05:00pm 29.4 21.1 -9.5 7 15.8 SW 28 35 15 19 1015.2 - 0.0
19/04:36pm 29.7 20.9 -10.6 6 16.1 SSW 30 48 16 26 1015.2 - 0.0
19/04:30pm 30.0 20.7 -11.7 6 16.4 SSW 32 48 17 26 1015.1 - 0.0
19/04:00pm 29.7 22.2 -9.0 7 15.9 SSW 24 37 13 20 1015.0 - 0.0
19/03:30pm 31.0 24.1 -11.2 6 16.9 SW 20 30 11 16 1014.9 - 0.0
19/03:00pm 30.7 22.2 -11.8 6 16.8 WSW 28 39 15 21 1015.4 1014.7 0.0
19/02:30pm 30.4 22.9 -9.1 7 16.3 SSW 24 37 13 20 1015.7 - 0.0
19/02:00pm 29.5 22.4 -8.4 8 15.7 S 22 30 12 16 1016.0 - 0.0
19/01:30pm 30.2 23.4 -9.2 7 16.2 S 20 26 11 14 1016.6 - 0.0
19/01:00pm 29.8 23.8 -11.1 6 16.2 SSW 15 22 8 12 1017.3 - 0.0
19/12:30pm 28.7 22.8 -9.6 7 15.4 WNW 15 19 8 10 1017.9 - 0.0
19/12:00pm 28.5 23.4 -5.6 10 14.7 SSW 13 17 7 9 1018.4 1017.8 0.0
19/11:30am 27.1 22.7 -5.5 11 13.9 SW 9 13 5 7 1019.2 - 0.0
19/11:00am 27.6 23.3 -4.6 12 14.0 NNW 9 15 5 8 1019.5 - 0.0
19/10:30am 26.8 22.7 -6.5 10 13.9 E 7 13 4 7 1019.8 - 0.0
19/10:00am 24.8 20.7 -3.2 15 12.2 ESE 9 13 5 7 1020.0 - 0.0
19/09:30am 23.1 18.9 -4.2 16 11.5 SE 9 13 5 7 1020.2 - 0.0
19/09:00am 21.9 17.7 -3.9 17 10.8 SSE 9 13 5 7 1020.3 1019.7 0.0
19/08:30am 18.6 14.5 -2.9 23 8.9 S 9 11 5 6 1020.1 - 0.0
19/08:00am 15.8 10.9 -6.9 20 8.4 S 11 13 6 7 1019.7 - 0.0
19/07:30am 12.8 8.8 -5.8 27 6.8 S 7 9 4 5 1019.2 - 0.0
19/07:00am 10.6 6.6 -6.1 30 5.9 S 7 9 4 5 1019.1 - 0.0
19/06:30am 7.7 3.8 -6.1 37 4.7 SW 6 9 3 5 1018.8 - 0.0
19/06:00am 7.2 3.2 -7.5 34 4.8 NNE 6 11 3 6 1018.6 1018.0 0.0
19/05:30am 9.5 5.6 -4.6 36 5.1 S 7 11 4 6 1018.5 - 0.0
19/05:00am 9.9 5.1 -6.0 32 5.6 S 11 13 6 7 1018.4 - 0.0
19/04:30am 10.7 5.4 -7.3 27 6.2 SSW 13 15 7 8 1018.6 - 0.0
19/04:00am 12.2 7.3 -7.1 25 6.8 SSW 11 15 6 8 1018.4 - 0.0
19/03:30am 12.5 6.8 -7.9 23 7.1 SSW 15 17 8 9 1018.5 - 0.0
19/03:00am 12.9 7.7 -6.5 25 7.0 SSW 13 17 7 9 1018.3 1017.7 0.0
19/02:30am 14.3 9.1 -6.4 23 7.6 S 13 15 7 8 1018.4 - 0.0
19/02:00am 14.4 8.6 -8.2 20 8.0 SSE 15 15 8 8 1018.4 - 0.0
19/01:30am 15.5 9.9 -6.6 21 8.2 S 15 19 8 10 1018.7 - 0.0
19/01:00am 14.9 9.1 -8.1 19 8.2 S 15 15 8 8 1018.6 - 0.0
19/12:30am 13.9 8.5 -9.0 19 7.9 SSW 13 17 7 9 1018.6 - 0.0
19/12:00am 15.3 9.8 -9.4 17 8.6 SE 13 13 7 7 1018.7 1018.1 0.0
 
Date/Time
EST
Temp
°C
App
Temp
°C
Dew
Point
Rel
Hum
%
Delta-T
°C
Wind Press
QNH
hPa
Press
MSL
hPa
Rain
since 9 am
mm
Dir
 
Spd
km/h
Gust
km/h
Spd
kts
Gust
kts
18/11:30pm 15.7 9.8 -10.1 16 8.9 ESE 15 17 8 9 1018.7 - 0.0
18/11:00pm 16.9 11.1 -9.1 16 9.3 SE 15 17 8 9 1018.8 - 0.0
18/10:30pm 16.5 11.1 -9.0 16 9.1 SE 13 13 7 7 1019.0 - 0.0
18/10:00pm 17.5 12.9 -8.0 17 9.4 S 9 11 5 6 1019.1 - 0.0
18/09:30pm 17.3 12.5 -6.3 19 9.0 SSE 11 11 6 6 1019.0 - 0.0
18/09:00pm 19.3 14.7 -7.6 15 10.2 S 9 11 5 6 1018.8 1018.2 0.0
18/08:30pm 19.1 14.7 -5.9 18 9.8 S 9 13 5 7 1018.5 - 0.0
18/08:00pm 20.9 17.0 -4.9 17 10.5 S 7 11 4 6 1018.2 - 0.0
18/07:30pm 21.8 16.8 -7.9 13 11.5 S 11 13 6 7 1017.8 - 0.0
18/07:00pm 23.4 18.7 -5.4 14 11.9 S 11 13 6 7 1017.5 - 0.0
18/06:30pm 24.7 19.4 -7.8 11 13.0 S 13 17 7 9 1017.2 - 0.0
18/06:00pm 26.2 20.9 -7.8 10 13.8 S 13 19 7 10 1016.8 1016.2 0.0
18/05:30pm 27.1 21.6 -10.0 8 14.6 S 13 17 7 9 1016.6 - 0.0
18/05:00pm 27.4 21.7 -12.0 7 15.0 S 13 26 7 14 1016.3 - 0.0
18/04:30pm 28.2 22.2 -11.7 6 15.4 S 15 28 8 15 1016.2 - 0.0
18/04:00pm 27.8 22.2 -11.0 7 15.1 S 13 19 7 10 1016.2 - 0.0
18/03:30pm 27.7 22.2 -9.8 8 14.9 SSE 13 24 7 13 1016.2 - 0.0
18/03:00pm 27.9 22.2 -12.2 6 15.3 SSE 13 20 7 11 1016.4 1015.8 0.0
18/02:30pm 27.9 20.3 -9.8 8 15.0 S 24 32 13 17 1016.8 - 0.0
18/02:00pm 28.2 22.0 -8.6 8 15.0 SW 17 26 9 14 1017.2 - 0.0
18/01:30pm 27.4 21.3 -8.2 9 14.5 S 17 28 9 15 1017.8 - 0.0
18/01:00pm 27.0 21.3 -7.0 10 14.1 SSE 15 28 8 15 1018.5 - 0.0
18/12:30pm 26.8 20.9 -5.3 12 13.7 S 17 24 9 13 1019.0 - 0.0
18/12:00pm 25.6 19.5 -4.0 14 12.8 SE 19 30 10 16 1019.6 1019.0 0.0
18/11:30am 25.1 19.1 -2.9 15 12.3 SE 19 32 10 17 1020.2 - 0.0
18/11:00am 24.6 19.0 -2.8 16 12.0 SSE 17 22 9 12 1020.9 - 0.0
18/10:30am 24.1 18.1 -3.1 16 11.8 SE 19 28 10 15 1021.3 - 0.0
18/10:00am 24.2 18.1 -2.4 17 11.7 E 20 32 11 17 1021.6 - 0.0
18/09:30am 23.1 17.0 -2.4 18 11.1 SE 20 28 11 15 1021.7 - 0.0
18/09:00am 21.5 15.4 -2.1 20 10.2 SE 20 30 11 16 1021.9 1021.3 0.0
18/08:30am 19.6 13.0 -3.3 21 9.5 SE 22 28 12 15 1021.9 - 0.0
18/08:00am 18.3 12.6 -3.6 22 8.9 SSE 17 20 9 11 1021.6 - 0.0
18/07:30am 14.4 9.3 -4.8 26 7.3 S 13 15 7 8 1021.3 - 0.0
18/07:00am 11.8 7.2 -3.8 33 5.9 SSW 11 13 6 7 1021.1 - 0.0
18/06:30am 11.0 6.8 -3.6 35 5.5 SSW 9 13 5 7 1020.8 - 0.0
18/06:00am 11.4 6.8 -3.7 34 5.7 SSW 11 15 6 8 1020.4 1019.8 0.0
18/05:30am 11.8 7.3 -3.4 34 5.8 SSW 11 13 6 7 1020.1 - 0.0
18/05:00am 12.1 8.0 -2.8 35 5.8 SW 9 11 5 6 1019.7 - 0.0
18/04:30am 13.1 9.2 -1.5 36 5.9 SSW 9 11 5 6 1019.4 - 0.0
18/04:00am 13.4 9.9 -1.0 37 5.9 SSW 7 9 4 5 1019.3 - 0.0
18/03:30am 13.9 9.9 -2.3 32 6.5 SSW 9 9 5 5 1019.3 - 0.0
18/03:00am 14.5 9.7 -2.4 31 6.8 SSW 13 13 7 7 1019.3 1018.7 0.0
18/02:30am 15.4 10.1 -3.5 27 7.5 SSW 15 17 8 9 1019.3 - 0.0
18/02:00am 16.2 12.1 -3.2 26 7.8 SSW 9 13 5 7 1019.5 - 0.0
18/01:30am 17.1 12.1 -3.9 23 8.4 SSW 13 15 7 8 1019.4 - 0.0
18/01:00am 18.1 13.1 -4.4 21 9.0 SSW 13 15 7 8 1019.3 - 0.0
18/12:30am 18.1 13.1 -4.4 21 9.0 SSW 13 19 7 10 1019.2 - 0.0
18/12:00am 19.1 13.5 -6.5 17 9.9 SSW 15 17 8 9 1019.1 1018.5 0.0
 
Date/Time
EST
Temp
°C
App
Temp
°C
Dew
Point
Rel
Hum
%
Delta-T
°C
Wind Press
QNH
hPa
Press
MSL
hPa
Rain
since 9 am
mm
Dir
 
Spd
km/h
Gust
km/h
Spd
kts
Gust
kts
17/11:30pm 18.8 13.6 -6.2 18 9.7 SSW 13 17 7 9 1019.0 - 0.0
17/11:00pm 18.0 13.3 -5.1 20 9.1 S 11 13 6 7 1018.8 - 0.0
17/10:30pm 18.8 14.4 -6.2 18 9.7 SSW 9 13 5 7 1018.7 - 0.0
17/10:00pm 19.9 16.0 -4.4 19 9.9 SSW 7 9 4 5 1018.4 - 0.0
17/09:30pm 21.4 16.3 -5.6 16 10.9 SSW 13 17 7 9 1018.3 - 0.0
17/09:00pm 20.6 15.9 -4.6 18 10.3 S 11 13 6 7 1018.1 1017.5 0.0
17/08:30pm 21.7 16.9 -5.9 15 11.1 SSW 11 15 6 8 1017.8 - 0.0
17/08:00pm 22.5 17.7 -5.8 14 11.5 S 11 11 6 6 1017.5 - 0.0
17/07:30pm 23.5 18.3 -5.7 14 12.0 SW 13 15 7 8 1017.2 - 0.0
17/07:00pm 25.0 18.8 -8.7 10 13.3 SSW 17 22 9 12 1016.8 - 0.0
17/06:30pm 26.4 19.8 -9.8 8 14.2 SSW 19 24 10 13 1016.4 - 0.0
17/06:00pm 27.5 19.5 -10.7 7 14.9 SW 26 33 14 18 1016.1 1015.4 0.0
17/05:30pm 28.5 21.2 -10.3 7 15.4 SW 22 30 12 16 1015.7 - 0.0
17/05:00pm 29.0 21.1 -8.2 8 15.4 SW 26 35 14 19 1015.5 - 0.0
17/04:30pm 29.6 22.1 -8.7 8 15.8 SW 24 35 13 19 1015.0 - 0.0
17/04:00pm 29.7 22.2 -9.0 7 15.9 SW 24 37 13 20 1015.0 - 0.0
17/03:30pm 29.9 21.9 -10.5 6 16.2 SW 26 41 14 22 1015.0 - 0.0
17/03:00pm 30.4 22.1 -14.4 5 16.9 W 26 37 14 20 1015.0 1014.4 0.0
17/02:30pm 30.1 22.3 -13.1 5 16.6 SW 24 33 13 18 1015.5 - 0.0
17/02:00pm 30.7 23.6 -13.8 5 17.0 SW 20 33 11 18 1015.9 - 0.0
17/01:30pm 29.4 23.9 -9.6 7 15.8 SW 13 20 7 11 1016.3 - 0.0
17/01:00pm 29.2 24.1 -5.6 10 15.1 WSW 13 20 7 11 1016.7 - 0.0
17/12:30pm 28.5 23.8 -1.5 14 13.9 ESE 13 24 7 13 1016.9 - 0.0
17/12:00pm 28.0 23.0 -4.4 11 14.2 S 13 19 7 10 1017.4 1016.8 0.0
17/11:30am 27.5 22.6 -3.7 12 13.8 S 13 22 7 12 1017.9 - 0.0
17/11:00am 26.6 21.3 -3.2 14 13.2 SSE 15 20 8 11 1018.4 - 0.0
17/10:30am 25.6 20.1 -2.1 16 12.4 ESE 17 26 9 14 1018.6 - 0.0
17/10:00am 25.0 19.5 -2.2 16 12.1 SE 17 30 9 16 1018.9 - 0.0
17/09:30am 24.1 18.6 -2.1 17 11.6 SE 17 26 9 14 1019.3 - 0.0
17/09:00am 22.9 17.4 -1.9 19 10.9 SE 17 22 9 12 1019.4 1018.8 0.0
17/08:30am 20.6 16.1 -3.2 20 10.0 ESE 11 17 6 9 1019.0 - 0.0
17/08:00am 17.4 13.3 -2.8 25 8.3 SSW 9 11 5 6 1019.3 - 0.0
17/07:30am 15.6 11.3 -4.9 24 7.9 WSW 9 9 5 5 1018.7 - 0.0
17/07:00am 13.2 8.8 -5.4 27 6.9 WNW 9 11 5 6 1018.3 - 0.0
17/06:30am 11.4 9.1 -2.1 39 5.3 CALM 0 0 0 0 1017.5 - 0.0
17/06:00am 13.1 9.5 -2.2 34 6.1 S 7 9 4 5 1017.4 1016.8 0.0
17/05:30am 13.5 9.5 -5.2 27 7.0 SSE 7 13 4 7 1016.8 - 0.0
17/05:00am 15.8 9.7 -7.4 19 8.5 SE 17 22 9 12 1016.2 - 0.0
17/04:30am 15.8 10.2 -6.8 20 8.4 ESE 15 22 8 12 1015.9 - 0.0
17/04:00am 16.5 10.0 -7.8 18 8.9 ESE 19 24 10 13 1015.6 - 0.0
17/03:30am 16.7 10.6 -7.8 18 9.0 ESE 17 19 9 10 1015.8 - 0.0
17/03:00am 17.5 11.7 -4.8 21 8.8 SE 17 20 9 11 1015.5 1014.8 0.0
17/02:30am 18.5 13.0 -5.8 18 9.5 SSE 15 19 8 10 1015.6 - 0.0
17/02:00am 19.0 12.6 -6.6 17 9.9 S 19 26 10 14 1015.5 - 0.0
17/01:30am 20.2 13.7 -7.8 14 10.7 S 19 26 10 14 1015.4 - 0.0
17/01:00am 20.2 14.0 -9.1 13 10.9 S 17 22 9 12 1015.6 - 0.0
17/12:30am 19.8 14.1 -7.8 15 10.5 S 15 19 8 10 1015.6 - 0.0
17/12:00am 19.9 14.2 -7.5 15 10.5 S 15 17 8 9 1015.8 1015.1 0.0
 
Date/Time
EST
Temp
°C
App
Temp
°C
Dew
Point
Rel
Hum
%
Delta-T
°C
Wind Press
QNH
hPa
Press
MSL
hPa
Rain
since 9 am
mm
Dir
 
Spd
km/h
Gust
km/h
Spd
kts
Gust
kts
16/11:30pm 20.2 14.5 -7.2 15 10.6 S 15 19 8 10 1015.7 - 0.0
16/11:00pm 20.5 15.7 -6.4 16 10.6 S 11 13 6 7 1015.8 - 0.0
16/10:30pm 21.4 16.6 -5.6 16 10.9 SSW 11 13 6 7 1015.7 - 0.0
16/10:00pm 22.5 17.2 -6.8 13 11.7 S 13 15 7 8 1015.5 - 0.0
16/09:30pm 23.7 17.9 -8.6 11 12.6 SSW 15 22 8 12 1015.2 - 0.0
16/09:00pm 24.2 17.5 -8.1 11 12.8 SSW 20 28 11 15 1014.9 1014.3 0.0
16/08:30pm 24.2 18.2 -6.9 12 12.6 SSW 17 24 9 13 1014.6 - 0.0
16/08:00pm 25.3 19.7 -6.4 12 13.1 SSW 15 19 8 10 1014.4 - 0.0

Other Formats:

Comma delimited format used in spreadsheet applications
http://www.bom.gov.au/fwo/IDQ60801/IDQ60801.94346.axf

JavaScript Object Notation format (JSON) in row-major order
http://www.bom.gov.au/fwo/IDQ60801/IDQ60801.94346.json